Time;durP1;ratioP1;P1;durP2;ratioP2;P2;SDS_P1;SDS_P2;PMS_P1;PMS_P2;Temp;Humidity;BMP_temperature;BMP_pressure;BME280_temperature;BME280_humidity;BME280_pressure;Samples;Min_cycle;Max_cycle;Signal;HPM_P1;HPM_P2
2022/06/22 00:02:10;;;;;;;;;;;;;;;;;;5031880;28;19959;-76
2022/06/22 00:04:36;;;;;;;;;;;;;;;;;;5045702;28;19960;-76
2022/06/22 00:07:03;;;;;;;;;;;;;;;;;;5042110;28;19949;-76
2022/06/22 00:09:29;;;;;;;;;;;;;;;;;;5042494;28;19949;-76
2022/06/22 00:11:55;;;;;;;;;;;;;;;;;;5046669;28;19948;-76
2022/06/22 00:14:24;;;;;;;;;;;;;;;;;;5039727;28;19956;-77
2022/06/22 00:16:50;;;;;;;;;;;;;;;;;;5045913;28;19983;-76
2022/06/22 00:19:16;;;;;;;;;;;;;;;;;;5035740;28;19972;-76
2022/06/22 00:21:42;;;;;;;;;;;;;;;;;;5029267;28;20343;-76
2022/06/22 00:24:09;;;;;;;;;;;;;;;;;;5044853;28;20389;-76
2022/06/22 00:26:36;;;;;;;;;;;;;;;;;;5042243;28;19952;-76
2022/06/22 00:29:02;;;;;;;;;;;;;;;;;;5035963;28;19941;-76
2022/06/22 00:31:29;;;;;;;;;;;;;;;;;;5032097;28;19945;-77
2022/06/22 00:33:55;;;;;;;;;;;;;;;;;;5021539;28;19948;-76
2022/06/22 00:36:21;;;;;;;;;;;;;;;;;;5042380;28;19977;-76
2022/06/22 00:38:47;;;;;;;;;;;;;;;;;;5040229;28;19960;-77
2022/06/22 00:41:13;;;;;;;;;;;;;;;;;;5039252;28;19967;-77
2022/06/22 00:43:39;;;;;;;;;;;;;;;;;;5028712;28;20066;-77
2022/06/22 00:46:06;;;;;;;;;;;;;;;;;;5046343;28;19945;-77
2022/06/22 00:48:32;;;;;;;;;;;;;;;;;;5027454;28;20338;-78
2022/06/22 00:50:58;;;;;;;;;;;;;;;;;;5034325;28;19956;-77
2022/06/22 00:53:24;;;;;;;;;;;;;;;;;;5028072;28;19964;-78
2022/06/22 00:55:50;;;;;;;;;;;;;;;;;;5036029;28;19949;-77
2022/06/22 00:58:17;;;;;;;;;;;;;;;;;;5044415;28;20545;-77
2022/06/22 01:00:43;;;;;;;;;;;;;;;;;;5027321;28;20389;-77
2022/06/22 01:03:09;;;;;;;;;;;;;;;;;;5041035;28;19968;-78
2022/06/22 01:05:35;;;;;;;;;;;;;;;;;;5038299;28;19982;-78
2022/06/22 01:08:02;;;;;;;;;;;;;;;;;;5034296;28;19948;-78
2022/06/22 01:10:28;;;;;;;;;;;;;;;;;;5053118;28;20424;-77
2022/06/22 01:12:54;;;;;;;;;;;;;;;;;;5047239;28;19916;-77
2022/06/22 01:15:20;;;;;;;;;;;;;;;;;;5047839;28;19940;-76
2022/06/22 01:17:46;;;;;;;;;;;;;;;;;;5053213;28;20375;-76
2022/06/22 01:20:13;;;;;;;;;;;;;;;;;;5053995;28;19955;-76
2022/06/22 01:22:39;;;;;;;;;;;;;;;;;;5055711;28;19959;-77
2022/06/22 01:25:05;;;;;;;;;;;;;;;;;;5064268;28;20013;-76
2022/06/22 01:27:31;;;;;;;;;;;;;;;;;;5046685;28;19960;-75
2022/06/22 01:29:57;;;;;;;;;;;;;;;;;;5051730;28;19944;-76
2022/06/22 01:32:24;;;;;;;;;;;;;;;;;;5058734;28;19995;-78
2022/06/22 01:34:51;;;;;;;;;;;;;;;;;;5061307;28;19955;-77
2022/06/22 01:37:17;;;;;;;;;;;;;;;;;;5059553;28;19917;-77
2022/06/22 01:39:43;;;;;;;;;;;;;;;;;;5061179;28;19960;-76
2022/06/22 01:42:09;;;;;;;;;;;;;;;;;;5062760;28;19963;-77
2022/06/22 01:44:35;;;;;;;;;;;;;;;;;;5060370;28;19920;-76
2022/06/22 01:47:02;;;;;;;;;;;;;;;;;;5058921;28;19966;-77
2022/06/22 01:49:28;;;;;;;;;;;;;;;;;;5061194;28;20017;-76
2022/06/22 01:51:54;;;;;;;;;;;;;;;;;;5035849;28;20422;-77
2022/06/22 01:54:20;;;;;;;;;;;;;;;;;;5057952;28;19995;-76
2022/06/22 01:56:46;;;;;;;;;;;;;;;;;;5060161;28;19948;-77
2022/06/22 01:59:12;;;;;;;;;;;;;;;;;;5054608;28;19954;-76
2022/06/22 02:01:39;;;;;;;;;;;;;;;;;;5062704;28;19967;-76
2022/06/22 02:04:05;;;;;;;;;;;;;;;;;;5056054;28;20398;-77
2022/06/22 02:09:16;;;;;;;;;;;;;;;;;;5067519;28;19940;-78
2022/06/22 02:11:42;;;;;;;;;;;;;;;;;;5066220;28;19952;-77
2022/06/22 02:14:09;;;;;;;;;;;;;;;;;;5057595;28;19943;-77
2022/06/22 02:16:35;;;;;;;;;;;;;;;;;;5056178;28;19998;-77
2022/06/22 02:19:01;;;;;;;;;;;;;;;;;;5061968;28;19952;-77
2022/06/22 02:21:27;;;;;;;;;;;;;;;;;;5061411;28;20386;-76
2022/06/22 02:23:55;;;;;;;;;;;;;;;;;;5059668;28;19944;-77
2022/06/22 02:26:22;;;;;;;;;;;;;;;;;;5048412;28;20560;-77
2022/06/22 02:28:48;;;;;;;;;;;;;;;;;;5059080;28;20002;-76
2022/06/22 02:31:14;;;;;;;;;;;;;;;;;;5051542;28;20341;-76
2022/06/22 02:33:40;;;;;;;;;;;;;;;;;;5065157;28;19959;-76
2022/06/22 02:36:06;;;;;;;;;;;;;;;;;;5059185;28;19968;-77
2022/06/22 02:38:33;;;;;;;;;;;;;;;;;;5056496;28;19940;-76
2022/06/22 02:46:31;;;;;;;;;;;;;;;;;;5060730;28;20380;-77
2022/06/22 02:48:57;;;;;;;;;;;;;;;;;;5066721;28;19948;-77
2022/06/22 02:51:24;;;;;;;;;;;;;;;;;;5041503;28;19951;-77
2022/06/22 02:53:50;;;;;;;;;;;;;;;;;;5049895;28;20533;-78
2022/06/22 02:56:16;;;;;;;;;;;;;;;;;;5060610;28;19952;-77
2022/06/22 02:58:44;;;;;;;;;;;;;;;;;;5061014;28;19952;-78
2022/06/22 03:01:12;;;;;;;;;;;;;;;;;;5077364;28;19961;-76
2022/06/22 03:03:38;;;;;;;;;;;;;;;;;;5062775;28;19960;-77
2022/06/22 03:06:04;;;;;;;;;;;;;;;;;;5066471;28;20362;-78
2022/06/22 03:08:30;;;;;;;;;;;;;;;;;;5060944;28;19963;-79
2022/06/22 03:10:56;;;;;;;;;;;;;;;;;;5064284;28;19952;-78
2022/06/22 03:13:23;;;;;;;;;;;;;;;;;;5062569;28;19970;-78
2022/06/22 03:15:49;;;;;;;;;;;;;;;;;;5059906;28;19944;-78
2022/06/22 03:18:15;;;;;;;;;;;;;;;;;;5063082;28;19956;-78
2022/06/22 03:20:43;;;;;;;;;;;;;;;;;;5049957;28;20297;-78
2022/06/22 03:23:09;;;;;;;;;;;;;;;;;;5075410;28;19984;-78
2022/06/22 03:25:35;;;;;;;;;;;;;;;;;;5060763;28;19916;-78
2022/06/22 03:28:01;;;;;;;;;;;;;;;;;;5062630;28;19959;-78
2022/06/22 03:30:27;;;;;;;;;;;;;;;;;;5059091;28;19967;-78
2022/06/22 03:32:54;;;;;;;;;;;;;;;;;;5068325;28;20423;-77
2022/06/22 03:35:20;;;;;;;;;;;;;;;;;;5082276;28;19952;-77
2022/06/22 03:37:47;;;;;;;;;;;;;;;;;;5066599;28;20380;-77
2022/06/22 03:40:13;;;;;;;;;;;;;;;;;;5063263;28;19948;-77
2022/06/22 03:42:39;;;;;;;;;;;;;;;;;;5063764;28;20024;-77
2022/06/22 03:45:05;;;;;;;;;;;;;;;;;;5066542;28;20407;-77
2022/06/22 03:47:31;;;;;;;;;;;;;;;;;;5053962;28;19971;-78
2022/06/22 03:49:58;;;;;;;;;;;;;;;;;;5077574;28;19975;-78
2022/06/22 03:52:26;;;;;;;;;;;;;;;;;;5064048;28;19955;-78
2022/06/22 03:54:52;;;;;;;;;;;;;;;;;;5064676;28;20380;-78
2022/06/22 03:57:18;;;;;;;;;;;;;;;;;;5067942;28;19967;-78
2022/06/22 03:59:44;;;;;;;;;;;;;;;;;;5064010;28;20757;-78
2022/06/22 04:02:10;;;;;;;;;;;;;;;;;;5067220;28;19948;-78
2022/06/22 04:04:37;;;;;;;;;;;;;;;;;;5052710;28;20384;-78
2022/06/22 04:07:03;;;;;;;;;;;;;;;;;;5054049;28;19958;-78
2022/06/22 04:09:29;;;;;;;;;;;;;;;;;;5064767;28;19955;-78
2022/06/22 04:11:55;;;;;;;;;;;;;;;;;;5066042;28;19970;-77
2022/06/22 04:14:21;;;;;;;;;;;;;;;;;;5066749;28;19932;-77
2022/06/22 04:16:48;;;;;;;;;;;;;;;;;;5053782;28;19941;-77
2022/06/22 04:19:14;;;;;;;;;;;;;;;;;;5066380;28;19948;-77
2022/06/22 04:21:40;;;;;;;;;;;;;;;;;;5054696;28;20378;-77
2022/06/22 04:24:11;;;;;;;;;;;;;;;;;;5082559;28;19912;-76
2022/06/22 04:26:37;;;;;;;;;;;;;;;;;;5061971;28;19948;-77
2022/06/22 04:29:03;;;;;;;;;;;;;;;;;;5050098;28;19917;-76
2022/06/22 04:31:29;;;;;;;;;;;;;;;;;;5057838;28;20436;-78
2022/06/22 04:33:58;;;;;;;;;;;;;;;;;;5050632;28;19967;-77
2022/06/22 04:36:25;;;;;;;;;;;;;;;;;;5052527;28;20050;-76
2022/06/22 04:38:51;;;;;;;;;;;;;;;;;;5066372;28;19947;-77
2022/06/22 04:41:17;;;;;;;;;;;;;;;;;;5069701;28;19916;-77
2022/06/22 04:43:43;;;;;;;;;;;;;;;;;;5071270;28;19999;-78
2022/06/22 04:46:09;;;;;;;;;;;;;;;;;;5066624;28;19944;-77
2022/06/22 04:48:36;;;;;;;;;;;;;;;;;;5055096;28;19944;-77
2022/06/22 04:51:02;;;;;;;;;;;;;;;;;;5053999;28;19978;-76
2022/06/22 04:53:28;;;;;;;;;;;;;;;;;;5066221;28;19944;-77
2022/06/22 04:55:54;;;;;;;;;;;;;;;;;;5067332;28;19944;-76
2022/06/22 04:58:20;;;;;;;;;;;;;;;;;;5048241;28;19958;-76
2022/06/22 05:00:46;;;;;;;;;;;;;;;;;;5067250;28;20387;-78
2022/06/22 05:03:13;;;;;;;;;;;;;;;;;;5065957;28;19944;-76
2022/06/22 05:05:39;;;;;;;;;;;;;;;;;;5060808;28;21520;-78
2022/06/22 05:08:05;;;;;;;;;;;;;;;;;;5058208;28;19967;-78
2022/06/22 05:10:32;;;;;;;;;;;;;;;;;;5061247;28;19956;-78
2022/06/22 05:12:58;;;;;;;;;;;;;;;;;;5041373;28;19998;-76
2022/06/22 05:15:24;;;;;;;;;;;;;;;;;;5057646;28;20517;-77
2022/06/22 05:17:50;;;;;;;;;;;;;;;;;;5050991;28;19948;-77
2022/06/22 05:20:16;;;;;;;;;;;;;;;;;;5061110;28;19960;-78
2022/06/22 05:22:43;;;;;;;;;;;;;;;;;;5052051;28;20415;-78
2022/06/22 05:25:09;;;;;;;;;;;;;;;;;;5065278;28;19955;-77
2022/06/22 05:27:35;;;;;;;;;;;;;;;;;;5064985;28;20369;-77
2022/06/22 05:30:02;;;;;;;;;;;;;;;;;;5051836;28;19963;-77
2022/06/22 05:32:28;;;;;;;;;;;;;;;;;;5051677;28;20376;-77
2022/06/22 05:34:55;;;;;;;;;;;;;;;;;;5061955;28;19952;-77
2022/06/22 05:37:21;;;;;;;;;;;;;;;;;;5056732;28;20416;-77
2022/06/22 05:39:47;;;;;;;;;;;;;;;;;;5060623;28;19952;-77
2022/06/22 05:42:14;;;;;;;;;;;;;;;;;;5058187;28;19960;-77
2022/06/22 05:44:40;;;;;;;;;;;;;;;;;;5056749;28;19956;-77
2022/06/22 05:47:06;;;;;;;;;;;;;;;;;;5061153;28;20294;-78
2022/06/22 05:49:33;;;;;;;;;;;;;;;;;;5045589;28;19943;-77
2022/06/22 05:51:59;;;;;;;;;;;;;;;;;;5068006;28;19947;-77
2022/06/22 05:54:26;;;;;;;;;;;;;;;;;;5061040;28;20392;-79
2022/06/22 05:56:53;;;;;;;;;;;;;;;;;;5059937;28;19952;-77
2022/06/22 05:59:19;;;;;;;;;;;;;;;;;;5060728;28;19940;-76
2022/06/22 06:01:46;;;;;;;;;;;;;;;;;;5057309;28;20344;-77
2022/06/22 06:04:12;;;;;;;;;;;;;;;;;;5048160;28;19952;-77
2022/06/22 06:06:38;;;;;;;;;;;;;;;;;;5053209;28;19956;-76
2022/06/22 06:09:04;;;;;;;;;;;;;;;;;;5059169;28;20412;-76
2022/06/22 06:11:30;;;;;;;;;;;;;;;;;;5051810;28;20474;-77
2022/06/22 06:13:59;;;;;;;;;;;;;;;;;;5047577;28;19956;-78
2022/06/22 06:16:26;;;;;;;;;;;;;;;;;;5056543;28;19967;-75
2022/06/22 06:18:52;;;;;;;;;;;;;;;;;;5060281;28;19964;-75
2022/06/22 06:21:18;;;;;;;;;;;;;;;;;;5057742;28;20355;-75
2022/06/22 06:23:45;;;;;;;;;;;;;;;;;;5060356;28;20625;-74
2022/06/22 06:28:56;;;;;;;;;;;;;;;;;;5060199;28;19968;-75
2022/06/22 06:31:22;;;;;;;;;;;;;;;;;;5058890;28;19952;-75
2022/06/22 06:33:48;;;;;;;;;;;;;;;;;;5065328;28;20408;-76
2022/06/22 06:36:14;;;;;;;;;;;;;;;;;;5062867;28;19955;-76
2022/06/22 06:38:40;;;;;;;;;;;;;;;;;;5058863;28;19944;-75
2022/06/22 06:41:07;;;;;;;;;;;;;;;;;;5057499;28;19960;-77
2022/06/22 06:43:33;;;;;;;;;;;;;;;;;;5067188;28;19940;-77
2022/06/22 06:46:05;;;;;;;;;;;;;;;;;;5064959;28;19940;-79
2022/06/22 06:48:31;;;;;;;;;;;;;;;;;;5023911;28;19982;-79
2022/06/22 06:50:57;;;;;;;;;;;;;;;;;;5041946;28;19921;-76
2022/06/22 06:53:24;;;;;;;;;;;;;;;;;;5046989;28;20370;-76
2022/06/22 06:55:50;;;;;;;;;;;;;;;;;;5061620;28;19920;-76
2022/06/22 06:58:16;;;;;;;;;;;;;;;;;;5060381;28;19948;-77
2022/06/22 07:00:42;;;;;;;;;;;;;;;;;;5064233;28;20506;-78
2022/06/22 07:03:08;;;;;;;;;;;;;;;;;;5054702;28;20392;-78
2022/06/22 07:05:34;;;;;;;;;;;;;;;;;;5066449;28;19955;-77
2022/06/22 07:08:01;;;;;;;;;;;;;;;;;;5062849;28;19952;-78
2022/06/22 07:10:27;;;;;;;;;;;;;;;;;;5052405;28;19960;-78
2022/06/22 07:12:53;;;;;;;;;;;;;;;;;;5061651;28;19968;-75
2022/06/22 07:15:19;;;;;;;;;;;;;;;;;;5059176;28;19966;-79
2022/06/22 07:17:45;;;;;;;;;;;;;;;;;;5057550;28;19955;-77
2022/06/22 07:20:12;;;;;;;;;;;;;;;;;;5056412;28;20370;-78
2022/06/22 07:22:38;;;;;;;;;;;;;;;;;;5053412;28;19966;-78
2022/06/22 07:25:04;;;;;;;;;;;;;;;;;;5060192;28;19966;-77
2022/06/22 07:27:31;;;;;;;;;;;;;;;;;;5058394;28;20458;-78
2022/06/22 07:29:57;;;;;;;;;;;;;;;;;;5055422;28;20733;-79
2022/06/22 07:32:23;;;;;;;;;;;;;;;;;;5050875;28;19956;-78
2022/06/22 07:34:50;;;;;;;;;;;;;;;;;;5057352;28;20372;-77
2022/06/22 07:37:16;;;;;;;;;;;;;;;;;;5050729;28;19960;-79
2022/06/22 07:39:42;;;;;;;;;;;;;;;;;;5059558;28;19955;-79
2022/06/22 07:42:08;;;;;;;;;;;;;;;;;;5067146;28;19963;-78
2022/06/22 07:44:34;;;;;;;;;;;;;;;;;;5060194;28;19952;-78
2022/06/22 07:47:01;;;;;;;;;;;;;;;;;;5055577;28;19960;-78
2022/06/22 07:49:27;;;;;;;;;;;;;;;;;;5064854;28;19966;-78
2022/06/22 07:51:53;;;;;;;;;;;;;;;;;;5062181;28;20009;-80
2022/06/22 07:54:19;;;;;;;;;;;;;;;;;;5061996;28;19983;-79
2022/06/22 07:56:46;;;;;;;;;;;;;;;;;;5054110;28;20260;-78
2022/06/22 07:59:12;;;;;;;;;;;;;;;;;;5059549;28;20462;-79
2022/06/22 08:01:38;;;;;;;;;;;;;;;;;;5064765;28;19971;-78
2022/06/22 08:04:05;;;;;;;;;;;;;;;;;;5066993;28;19959;-79
2022/06/22 08:06:31;;;;;;;;;;;;;;;;;;5046680;28;19943;-79
2022/06/22 08:08:58;;;;;;;;;;;;;;;;;;5054630;28;19960;-78
2022/06/22 08:11:24;;;;;;;;;;;;;;;;;;5042738;28;19943;-80
2022/06/22 08:13:50;;;;;;;;;;;;;;;;;;5055389;28;20349;-78
2022/06/22 08:16:19;;;;;;;;;;;;;;;;;;5066240;28;19923;-79
2022/06/22 08:18:45;;;;;;;;;;;;;;;;;;5065633;28;19959;-79
2022/06/22 08:21:11;;;;;;;;;;;;;;;;;;5063699;28;20069;-79
2022/06/22 08:23:37;;;;;;;;;;;;;;;;;;5064609;28;20072;-79
2022/06/22 08:26:04;;;;;;;;;;;;;;;;;;5053757;28;19944;-79
2022/06/22 08:28:30;;;;;;;;;;;;;;;;;;5053213;28;19968;-79
2022/06/22 08:30:56;;;;;;;;;;;;;;;;;;5057133;28;19951;-79
2022/06/22 08:33:22;;;;;;;;;;;;;;;;;;5056052;28;20552;-77
2022/06/22 08:35:49;;;;;;;;;;;;;;;;;;5062804;28;20009;-77
2022/06/22 08:38:15;;;;;;;;;;;;;;;;;;5057300;28;19978;-78
2022/06/22 08:40:41;;;;;;;;;;;;;;;;;;5045515;28;19968;-78
2022/06/22 08:43:07;;;;;;;;;;;;;;;;;;5058973;28;19952;-75
2022/06/22 08:45:34;;;;;;;;;;;;;;;;;;5058574;28;19963;-76
2022/06/22 08:48:00;;;;;;;;;;;;;;;;;;5056786;28;19960;-77
2022/06/22 08:50:26;;;;;;;;;;;;;;;;;;5055859;28;19967;-76
2022/06/22 08:52:52;;;;;;;;;;;;;;;;;;5056913;28;19995;-76
2022/06/22 08:55:18;;;;;;;;;;;;;;;;;;5052613;28;20403;-77
2022/06/22 08:57:45;;;;;;;;;;;;;;;;;;5056355;28;19975;-77
2022/06/22 09:00:11;;;;;;;;;;;;;;;;;;5063924;28;19952;-77
2022/06/22 09:02:40;;;;;;;;;;;;;;;;;;5052534;28;19956;-76
2022/06/22 09:05:06;;;;;;;;;;;;;;;;;;5054089;28;19963;-77
2022/06/22 09:07:32;;;;;;;;;;;;;;;;;;5056761;28;19966;-76
2022/06/22 09:09:58;;;;;;;;;;;;;;;;;;5056824;28;19952;-76
2022/06/22 09:12:25;;;;;;;;;;;;;;;;;;5056997;28;19959;-76
2022/06/22 09:14:51;;;;;;;;;;;;;;;;;;5055328;28;19948;-76
2022/06/22 09:17:17;;;;;;;;;;;;;;;;;;5057409;28;19951;-76
2022/06/22 09:19:43;;;;;;;;;;;;;;;;;;5060385;28;19928;-77
2022/06/22 09:22:09;;;;;;;;;;;;;;;;;;5070061;28;20341;-77
2022/06/22 09:24:36;;;;;;;;;;;;;;;;;;5059502;28;19952;-77
2022/06/22 09:27:03;;;;;;;;;;;;;;;;;;5066117;28;20441;-77
2022/06/22 09:29:29;;;;;;;;;;;;;;;;;;5056948;28;19952;-77
2022/06/22 09:31:55;;;;;;;;;;;;;;;;;;5053064;28;20340;-78
2022/06/22 09:34:21;;;;;;;;;;;;;;;;;;5057208;28;19956;-78
2022/06/22 09:36:47;;;;;;;;;;;;;;;;;;5056627;28;19959;-78
2022/06/22 09:39:13;;;;;;;;;;;;;;;;;;5058255;28;19958;-78
2022/06/22 09:41:40;;;;;;;;;;;;;;;;;;5051431;28;19967;-77
2022/06/22 09:44:06;;;;;;;;;;;;;;;;;;5048903;28;20013;-77
2022/06/22 09:46:32;;;;;;;;;;;;;;;;;;5056084;28;19956;-77
2022/06/22 09:48:58;;;;;;;;;;;;;;;;;;5064987;28;20379;-76
2022/06/22 09:51:24;;;;;;;;;;;;;;;;;;5062837;28;19955;-81
2022/06/22 09:53:51;;;;;;;;;;;;;;;;;;5052133;28;19963;-78
2022/06/22 09:56:22;;;;;;;;;;;;;;;;;;5059645;28;19968;-77
2022/06/22 09:58:48;;;;;;;;;;;;;;;;;;5062360;28;19952;-77
2022/06/22 10:01:15;;;;;;;;;;;;;;;;;;5056986;28;19955;-76
2022/06/22 10:03:42;;;;;;;;;;;;;;;;;;5065270;28;19968;-78
2022/06/22 10:06:08;;;;;;;;;;;;;;;;;;5050951;28;19952;-79
2022/06/22 10:08:34;;;;;;;;;;;;;;;;;;5063078;28;19947;-81
2022/06/22 10:11:00;;;;;;;;;;;;;;;;;;5065976;28;20033;-79
2022/06/22 10:13:26;;;;;;;;;;;;;;;;;;5063392;28;19939;-79
2022/06/22 10:15:53;;;;;;;;;;;;;;;;;;5051566;28;19960;-80
2022/06/22 10:18:19;;;;;;;;;;;;;;;;;;5063718;28;19916;-78
2022/06/22 10:20:45;;;;;;;;;;;;;;;;;;5054170;28;19975;-78
2022/06/22 10:23:11;;;;;;;;;;;;;;;;;;5062133;28;19959;-79
2022/06/22 10:25:37;;;;;;;;;;;;;;;;;;5056069;28;19978;-79
2022/06/22 10:28:04;;;;;;;;;;;;;;;;;;5060225;28;19956;-78
2022/06/22 10:30:30;;;;;;;;;;;;;;;;;;5060979;28;19944;-77
2022/06/22 10:32:56;;;;;;;;;;;;;;;;;;5062814;28;19957;-78
2022/06/22 10:35:22;;;;;;;;;;;;;;;;;;5043770;28;19952;-76
2022/06/22 10:37:48;;;;;;;;;;;;;;;;;;5056473;28;21081;-76
2022/06/22 10:45:08;;;;;;;;;;;;;;;;;;5056251;28;20053;-78
2022/06/22 10:45:46;;;;;;;;;;;;;;;;;;5059217;28;20485;-78
2022/06/22 10:48:12;;;;;;;;;;;;;;;;;;5054133;28;19956;-78
2022/06/22 10:50:38;;;;;;;;;;;;;;;;;;5064834;28;19960;-77
2022/06/22 10:53:04;;;;;;;;;;;;;;;;;;5051526;28;20279;-77
2022/06/22 10:55:31;;;;;;;;;;;;;;;;;;5060520;28;19964;-77
2022/06/22 10:57:57;;;;;;;;;;;;;;;;;;5068441;28;19944;-78
2022/06/22 11:00:23;;;;;;;;;;;;;;;;;;5064677;28;19951;-77
2022/06/22 11:02:49;;;;;;;;;;;;;;;;;;5047482;28;19981;-77
2022/06/22 11:05:15;;;;;;;;;;;;;;;;;;5064637;28;19939;-75
2022/06/22 11:07:41;;;;;;;;;;;;;;;;;;5045656;28;20007;-74
2022/06/22 11:10:08;;;;;;;;;;;;;;;;;;5041989;28;19956;-74
2022/06/22 11:12:34;;;;;;;;;;;;;;;;;;5059017;28;19947;-74
2022/06/22 11:15:00;;;;;;;;;;;;;;;;;;5055847;28;19963;-75
2022/06/22 11:17:26;;;;;;;;;;;;;;;;;;5060669;28;20512;-77
2022/06/22 11:19:52;;;;;;;;;;;;;;;;;;5056977;28;20026;-76
2022/06/22 11:22:19;;;;;;;;;;;;;;;;;;5056629;28;20497;-75
2022/06/22 11:24:45;;;;;;;;;;;;;;;;;;5057513;28;19966;-77
2022/06/22 11:32:41;;;;;;;;;;;;;;;;;;5056517;28;20011;-76
2022/06/22 11:35:08;;;;;;;;;;;;;;;;;;5048329;28;20033;-77
2022/06/22 11:37:34;;;;;;;;;;;;;;;;;;5062553;28;20383;-77
2022/06/22 11:40:02;;;;;;;;;;;;;;;;;;5066978;28;20040;-77
2022/06/22 11:42:28;;;;;;;;;;;;;;;;;;5065490;28;19963;-76
2022/06/22 11:47:39;;;;;;;;;;;;;;;;;;5057670;28;19952;-76
2022/06/22 11:50:05;;;;;;;;;;;;;;;;;;5045976;28;20001;-76
2022/06/22 11:52:31;;;;;;;;;;;;;;;;;;5059148;28;19963;-76
2022/06/22 11:54:57;;;;;;;;;;;;;;;;;;5067549;28;19925;-76
2022/06/22 11:57:24;;;;;;;;;;;;;;;;;;5043570;28;20037;-77
2022/06/22 11:59:50;;;;;;;;;;;;;;;;;;5065331;28;20502;-78
2022/06/22 12:02:16;;;;;;;;;;;;;;;;;;5032922;28;20018;-77
2022/06/22 12:04:42;;;;;;;;;;;;;;;;;;5058130;28;19968;-76
2022/06/22 12:07:08;;;;;;;;;;;;;;;;;;5060631;28;19955;-77
2022/06/22 12:09:35;;;;;;;;;;;;;;;;;;5050325;28;20046;-76
2022/06/22 12:12:01;;;;;;;;;;;;;;;;;;5063142;28;20010;-77
2022/06/22 12:17:12;;;;;;;;;;;;;;;;;;5065729;28;19951;-76
2022/06/22 12:19:39;;;;;;;;;;;;;;;;;;5061528;28;19920;-76
2022/06/22 12:22:05;;;;;;;;;;;;;;;;;;5063132;28;20028;-77
2022/06/22 12:24:31;;;;;;;;;;;;;;;;;;5047138;28;20387;-78
2022/06/22 12:26:58;;;;;;;;;;;;;;;;;;5048230;28;19960;-78
2022/06/22 12:29:24;;;;;;;;;;;;;;;;;;5047688;28;19984;-77
2022/06/22 12:31:50;;;;;;;;;;;;;;;;;;5060041;28;19958;-77
2022/06/22 12:34:17;;;;;;;;;;;;;;;;;;5066712;28;19956;-77
2022/06/22 12:36:44;;;;;;;;;;;;;;;;;;5053416;28;19960;-78
2022/06/22 12:39:11;;;;;;;;;;;;;;;;;;5056536;28;19944;-78
2022/06/22 12:41:37;;;;;;;;;;;;;;;;;;5052230;28;20052;-78
2022/06/22 12:44:03;;;;;;;;;;;;;;;;;;5061037;28;20447;-78
2022/06/22 12:46:29;;;;;;;;;;;;;;;;;;5058718;28;19959;-77
2022/06/22 12:48:56;;;;;;;;;;;;;;;;;;5060065;28;20392;-76
2022/06/22 12:51:26;;;;;;;;;;;;;;;;;;5066529;28;19982;-77
2022/06/22 12:53:52;;;;;;;;;;;;;;;;;;5063542;28;22151;-76
2022/06/22 12:56:18;;;;;;;;;;;;;;;;;;5060305;28;19952;-75
2022/06/22 12:58:44;;;;;;;;;;;;;;;;;;5062953;28;19949;-74
2022/06/22 13:01:11;;;;;;;;;;;;;;;;;;5061209;28;19970;-75
2022/06/22 13:03:37;;;;;;;;;;;;;;;;;;5064993;28;19947;-75
2022/06/22 13:06:03;;;;;;;;;;;;;;;;;;5062423;28;20004;-76
2022/06/22 13:08:29;;;;;;;;;;;;;;;;;;5054109;28;20451;-76
2022/06/22 13:10:55;;;;;;;;;;;;;;;;;;5056087;28;19951;-78
2022/06/22 13:13:22;;;;;;;;;;;;;;;;;;5056073;28;20399;-77
2022/06/22 13:15:48;;;;;;;;;;;;;;;;;;5055630;28;21417;-75
2022/06/22 13:18:14;;;;;;;;;;;;;;;;;;5059771;28;20439;-76
2022/06/22 13:20:40;;;;;;;;;;;;;;;;;;5051669;28;19975;-76
2022/06/22 13:23:06;;;;;;;;;;;;;;;;;;5051017;28;19948;-75
2022/06/22 13:25:33;;;;;;;;;;;;;;;;;;5057400;28;19986;-74
2022/06/22 13:27:59;;;;;;;;;;;;;;;;;;5045171;28;19948;-77
2022/06/22 13:30:25;;;;;;;;;;;;;;;;;;5049995;28;20388;-77
2022/06/22 13:32:51;;;;;;;;;;;;;;;;;;5054686;28;19967;-75
2022/06/22 13:35:17;;;;;;;;;;;;;;;;;;5055414;28;19944;-75
2022/06/22 13:37:44;;;;;;;;;;;;;;;;;;5052667;28;19952;-75
2022/06/22 13:40:10;;;;;;;;;;;;;;;;;;5055096;28;19948;-77
2022/06/22 13:42:36;;;;;;;;;;;;;;;;;;5045393;28;20349;-75
2022/06/22 13:45:03;;;;;;;;;;;;;;;;;;5063394;28;19959;-74
2022/06/22 13:47:29;;;;;;;;;;;;;;;;;;5056919;28;19995;-75
2022/06/22 13:50:14;;;;;;;;;;;;;;;;;;5062723;28;19960;-74
2022/06/22 13:52:41;;;;;;;;;;;;;;;;;;5054362;28;19952;-74
2022/06/22 13:55:09;;;;;;;;;;;;;;;;;;5059683;28;20074;-75
2022/06/22 13:57:35;;;;;;;;;;;;;;;;;;5057407;28;20380;-74
2022/06/22 14:00:02;;;;;;;;;;;;;;;;;;5053288;28;19920;-77
2022/06/22 14:02:31;;;;;;;;;;;;;;;;;;5059914;28;20278;-75
2022/06/22 14:04:58;;;;;;;;;;;;;;;;;;5064052;28;19952;-76
2022/06/22 14:07:24;;;;;;;;;;;;;;;;;;5065806;28;19967;-77
2022/06/22 14:09:50;;;;;;;;;;;;;;;;;;5068459;28;19952;-75
2022/06/22 14:12:17;;;;;;;;;;;;;;;;;;5064985;28;19963;-76
2022/06/22 14:14:43;;;;;;;;;;;;;;;;;;5060541;28;20386;-76
2022/06/22 14:17:09;;;;;;;;;;;;;;;;;;5061262;28;19944;-76
2022/06/22 14:19:35;;;;;;;;;;;;;;;;;;5062754;28;19956;-77
2022/06/22 14:22:01;;;;;;;;;;;;;;;;;;5052661;28;19991;-77
2022/06/22 14:24:28;;;;;;;;;;;;;;;;;;5078341;28;20014;-76
2022/06/22 14:26:54;;;;;;;;;;;;;;;;;;5052908;28;19963;-80
2022/06/22 14:29:20;;;;;;;;;;;;;;;;;;5079809;28;20001;-75
2022/06/22 14:31:46;;;;;;;;;;;;;;;;;;5062682;28;19956;-76
2022/06/22 14:34:12;;;;;;;;;;;;;;;;;;5065992;28;20413;-75
2022/06/22 14:36:38;;;;;;;;;;;;;;;;;;5056125;28;20537;-75
2022/06/22 14:39:05;;;;;;;;;;;;;;;;;;5061059;28;19956;-75
2022/06/22 14:41:31;;;;;;;;;;;;;;;;;;5051480;28;19956;-74
2022/06/22 14:43:58;;;;;;;;;;;;;;;;;;5053373;28;19913;-74
2022/06/22 14:46:24;;;;;;;;;;;;;;;;;;5053191;28;19925;-76
2022/06/22 14:48:50;;;;;;;;;;;;;;;;;;5056864;28;19970;-75
2022/06/22 14:51:16;;;;;;;;;;;;;;;;;;5057884;28;19959;-75
2022/06/22 14:53:43;;;;;;;;;;;;;;;;;;5066549;28;20046;-75
2022/06/22 14:56:09;;;;;;;;;;;;;;;;;;5054712;28;19990;-75
2022/06/22 14:58:35;;;;;;;;;;;;;;;;;;5051347;28;19964;-76
2022/06/22 15:01:01;;;;;;;;;;;;;;;;;;5057665;28;19962;-74
2022/06/22 15:03:27;;;;;;;;;;;;;;;;;;5062831;28;19955;-74
2022/06/22 15:05:53;;;;;;;;;;;;;;;;;;5062228;28;19952;-74
2022/06/22 15:08:20;;;;;;;;;;;;;;;;;;5053421;28;19962;-73
2022/06/22 15:10:46;;;;;;;;;;;;;;;;;;5054771;28;19947;-73
2022/06/22 15:13:12;;;;;;;;;;;;;;;;;;5081022;28;20376;-74
2022/06/22 15:15:38;;;;;;;;;;;;;;;;;;5060427;28;19960;-73
2022/06/22 15:18:05;;;;;;;;;;;;;;;;;;5062911;28;19966;-73
2022/06/22 15:20:31;;;;;;;;;;;;;;;;;;5058973;28;19971;-74
2022/06/22 15:22:57;;;;;;;;;;;;;;;;;;5066803;28;19960;-73
2022/06/22 15:25:23;;;;;;;;;;;;;;;;;;5063206;28;19951;-75
2022/06/22 15:27:49;;;;;;;;;;;;;;;;;;5054584;28;19956;-74
2022/06/22 15:30:15;;;;;;;;;;;;;;;;;;5065309;28;20851;-74
2022/06/22 15:32:42;;;;;;;;;;;;;;;;;;5060267;28;19956;-74
2022/06/22 15:35:08;;;;;;;;;;;;;;;;;;5068066;28;20375;-74
2022/06/22 15:37:34;;;;;;;;;;;;;;;;;;5061680;28;19941;-74
2022/06/22 15:40:00;;;;;;;;;;;;;;;;;;5061265;28;19962;-74
2022/06/22 15:42:27;;;;;;;;;;;;;;;;;;5080849;28;19960;-73
2022/06/22 15:44:53;;;;;;;;;;;;;;;;;;5064273;28;19947;-74
2022/06/22 15:47:20;;;;;;;;;;;;;;;;;;5059149;28;20021;-74
2022/06/22 15:49:46;;;;;;;;;;;;;;;;;;5066327;28;19956;-74
2022/06/22 15:52:12;;;;;;;;;;;;;;;;;;5066224;28;19940;-74
2022/06/22 15:54:38;;;;;;;;;;;;;;;;;;5065332;28;20353;-74
2022/06/22 15:57:04;;;;;;;;;;;;;;;;;;5058378;28;19974;-74
2022/06/22 15:59:31;;;;;;;;;;;;;;;;;;5053871;28;19924;-74
2022/06/22 16:01:57;;;;;;;;;;;;;;;;;;5068161;28;19964;-73
2022/06/22 16:04:26;;;;;;;;;;;;;;;;;;5058398;28;19951;-74
2022/06/22 16:06:53;;;;;;;;;;;;;;;;;;5065279;28;19959;-73
2022/06/22 16:09:19;;;;;;;;;;;;;;;;;;5066168;28;20340;-73
2022/06/22 16:14:30;;;;;;;;;;;;;;;;;;5051145;28;20670;-73
2022/06/22 16:16:56;;;;;;;;;;;;;;;;;;5064848;28;19952;-74
2022/06/22 16:19:22;;;;;;;;;;;;;;;;;;5051959;28;19948;-74
2022/06/22 16:21:48;;;;;;;;;;;;;;;;;;5053409;28;19955;-73
2022/06/22 16:24:15;;;;;;;;;;;;;;;;;;5059622;28;19948;-73
2022/06/22 16:26:42;;;;;;;;;;;;;;;;;;5047902;28;19948;-75
2022/06/22 16:29:09;;;;;;;;;;;;;;;;;;5058175;28;19952;-74
2022/06/22 16:31:35;;;;;;;;;;;;;;;;;;5063128;28;20565;-74
2022/06/22 16:34:01;;;;;;;;;;;;;;;;;;5057098;28;19982;-74
2022/06/22 16:36:27;;;;;;;;;;;;;;;;;;5052370;28;19952;-75
2022/06/22 16:38:53;;;;;;;;;;;;;;;;;;5061548;28;19955;-75
2022/06/22 16:41:20;;;;;;;;;;;;;;;;;;5061418;28;20033;-74
2022/06/22 16:43:46;;;;;;;;;;;;;;;;;;5061671;28;19967;-73
2022/06/22 16:46:12;;;;;;;;;;;;;;;;;;5049330;28;19916;-73
2022/06/22 16:48:38;;;;;;;;;;;;;;;;;;5066371;28;20585;-73
2022/06/22 16:51:05;;;;;;;;;;;;;;;;;;5053636;28;19952;-75
2022/06/22 16:53:31;;;;;;;;;;;;;;;;;;5061414;28;19956;-74
2022/06/22 16:55:58;;;;;;;;;;;;;;;;;;5056470;28;19964;-73
2022/06/22 16:58:24;;;;;;;;;;;;;;;;;;5056134;28;20424;-74
2022/06/22 17:00:50;;;;;;;;;;;;;;;;;;5051225;28;19971;-73
2022/06/22 17:03:16;;;;;;;;;;;;;;;;;;5059922;28;19971;-73
2022/06/22 17:05:42;;;;;;;;;;;;;;;;;;5057538;28;20560;-74
2022/06/22 17:08:09;;;;;;;;;;;;;;;;;;5053696;28;19983;-73